Time;durP1;ratioP1;P1;durP2;ratioP2;P2;SDS_P1;SDS_P2;PMS_P1;PMS_P2;Temp;Humidity;BMP_temperature;BMP_pressure;BME280_temperature;BME280_humidity;BME280_pressure;Samples;Min_cycle;Max_cycle;Signal;HPM_P1;HPM_P2
2022/06/05 00:03:00;;;;;;;0.82;0.75;;;;;;;;;;4976115;28;20142;-85
2022/06/05 00:09:31;;;;;;;0.40;0.40;;;;;;;;;;4976238;28;20037;-83
2022/06/05 00:12:32;;;;;;;0.85;0.85;;;;;;;;;;4957204;28;20043;-83
2022/06/05 00:14:57;;;;;;;1.10;0.85;;;;;;;;;;4978923;28;20034;-82
2022/06/05 00:17:25;;;;;;;0.63;0.63;;;;;;;;;;4991495;28;20041;-83
2022/06/05 00:19:55;;;;;;;1.70;0.80;;;;;;;;;;5007771;28;20030;-83
2022/06/05 00:22:24;;;;;;;1.20;1.10;;;;;;;;;;4959503;28;20029;-82
2022/06/05 00:24:52;;;;;;;4.30;1.35;;;;;;;;;;4990850;28;20037;-83
2022/06/05 00:27:29;;;;;;;0.75;0.68;;;;;;;;;;4959016;28;20119;-83
2022/06/05 00:30:09;;;;;;;1.05;0.93;;;;;;;;;;5007915;28;20093;-84
2022/06/05 00:32:45;;;;;;;0.40;0.40;;;;;;;;;;4991852;28;20027;-83
2022/06/05 00:35:18;;;;;;;1.35;0.80;;;;;;;;;;4959677;28;20030;-83
2022/06/05 00:38:00;;;;;;;2.92;1.42;;;;;;;;;;4975495;28;20348;-84
2022/06/05 00:40:50;;;;;;;1.45;1.00;;;;;;;;;;4991143;28;20030;-83
2022/06/05 00:43:18;;;;;;;0.85;0.85;;;;;;;;;;4991078;28;20098;-83
2022/06/05 00:45:44;;;;;;;1.05;0.82;;;;;;;;;;4958791;28;20027;-83
2022/06/05 00:48:10;;;;;;;1.45;1.25;;;;;;;;;;4959685;28;20041;-83
2022/06/05 00:50:43;;;;;;;1.27;1.00;;;;;;;;;;5007555;28;20023;-83
2022/06/05 00:53:10;;;;;;;0.70;0.70;;;;;;;;;;5008012;28;20400;-83
2022/06/05 00:55:48;;;;;;;1.05;0.93;;;;;;;;;;4974669;28;20467;-84
2022/06/05 00:58:15;;;;;;;0.63;0.63;;;;;;;;;;4958681;28;20030;-83
2022/06/05 01:00:46;;;;;;;0.80;0.80;;;;;;;;;;4958927;28;20027;-83
2022/06/05 01:03:14;;;;;;;0.77;0.77;;;;;;;;;;4991661;28;20441;-83
2022/06/05 01:09:15;;;;;;;0.85;0.80;;;;;;;;;;4975790;28;20050;-83
2022/06/05 01:12:00;;;;;;;0.85;0.85;;;;;;;;;;5007206;28;20038;-83
2022/06/05 01:14:56;;;;;;;0.82;0.80;;;;;;;;;;4961234;28;20330;-82
2022/06/05 01:17:48;;;;;;;0.93;0.85;;;;;;;;;;4994328;28;20023;-82
2022/06/05 01:20:53;;;;;;;1.17;1.05;;;;;;;;;;5010609;28;20029;-81
2022/06/05 01:23:53;;;;;;;3.53;1.65;;;;;;;;;;4994318;28;20027;-82
2022/06/05 01:26:19;;;;;;;1.48;1.08;;;;;;;;;;4993926;28;20372;-82
2022/06/05 01:28:55;;;;;;;1.13;0.82;;;;;;;;;;4994231;28;20023;-82
2022/06/05 01:31:41;;;;;;;0.77;0.77;;;;;;;;;;4962616;28;20030;-82
2022/06/05 01:34:18;;;;;;;1.45;0.70;;;;;;;;;;4994071;28;20051;-82
2022/06/05 01:36:53;;;;;;;2.25;1.05;;;;;;;;;;4995351;28;20027;-82
2022/06/05 01:39:27;;;;;;;1.10;1.00;;;;;;;;;;4994131;28;20481;-83
2022/06/05 01:41:58;;;;;;;0.60;0.60;;;;;;;;;;4962191;28;20097;-82
2022/06/05 01:44:32;;;;;;;1.80;1.45;;;;;;;;;;4994139;28;20077;-82
2022/06/05 01:47:01;;;;;;;1.25;0.50;;;;;;;;;;4994596;28;20022;-83
2022/06/05 01:49:33;;;;;;;1.10;0.75;;;;;;;;;;4961463;28;20030;-82
2022/06/05 01:52:05;;;;;;;2.17;1.20;;;;;;;;;;4977684;28;20022;-82
2022/06/05 01:54:39;;;;;;;1.23;1.13;;;;;;;;;;4978056;28;20113;-82
2022/06/05 01:57:08;;;;;;;0.70;0.70;;;;;;;;;;4977464;28;20359;-82
2022/06/05 01:59:40;;;;;;;1.10;1.10;;;;;;;;;;5009873;28;20051;-82
2022/06/05 02:02:11;;;;;;;0.77;0.77;;;;;;;;;;4978361;28;20026;-82
2022/06/05 02:04:46;;;;;;;1.05;0.93;;;;;;;;;;4962129;28;20019;-82
2022/06/05 02:07:25;;;;;;;0.60;0.55;;;;;;;;;;4977200;28;20094;-83
2022/06/05 02:09:59;;;;;;;1.65;1.50;;;;;;;;;;4977517;28;20026;-82
2022/06/05 02:12:24;;;;;;;0.82;0.75;;;;;;;;;;4993588;28;20110;-82
2022/06/05 02:14:52;;;;;;;1.35;1.00;;;;;;;;;;4961136;28;20066;-82
2022/06/05 02:17:20;;;;;;;1.42;1.17;;;;;;;;;;4961083;28;20026;-82
2022/06/05 02:19:49;;;;;;;0.88;0.88;;;;;;;;;;5009484;28;20449;-84
2022/06/05 02:22:28;;;;;;;1.20;0.90;;;;;;;;;;4977278;28;20034;-82
2022/06/05 02:24:56;;;;;;;1.95;1.38;;;;;;;;;;4960629;28;20110;-82
2022/06/05 02:27:25;;;;;;;2.03;1.10;;;;;;;;;;4961318;28;20019;-83
2022/06/05 02:29:51;;;;;;;1.85;1.65;;;;;;;;;;4961098;28;20026;-83
2022/06/05 02:32:20;;;;;;;1.15;1.05;;;;;;;;;;4961165;28;20058;-82
2022/06/05 02:35:00;;;;;;;2.13;1.10;;;;;;;;;;4993267;28;20125;-82
2022/06/05 02:37:37;;;;;;;1.42;1.33;;;;;;;;;;4993475;28;20475;-82
2022/06/05 02:40:19;;;;;;;1.23;1.10;;;;;;;;;;4992831;28;20113;-84
2022/06/05 02:42:57;;;;;;;1.45;1.33;;;;;;;;;;5009497;28;20033;-83
2022/06/05 02:45:44;;;;;;;1.15;0.90;;;;;;;;;;4960563;28;20201;-84
2022/06/05 02:48:31;;;;;;;1.85;1.02;;;;;;;;;;4993016;28;20113;-84
2022/06/05 02:51:05;;;;;;;2.03;1.63;;;;;;;;;;4992875;28;20031;-84
2022/06/05 02:53:45;;;;;;;1.23;0.95;;;;;;;;;;4992473;28;20026;-84
2022/06/05 02:56:10;;;;;;;2.15;1.55;;;;;;;;;;4976964;28;20034;-84
2022/06/05 02:58:38;;;;;;;1.95;1.75;;;;;;;;;;4992732;28;20336;-83
2022/06/05 03:03:53;;;;;;;1.23;1.13;;;;;;;;;;4976403;28;20110;-83
2022/06/05 03:06:19;;;;;;;2.72;2.35;;;;;;;;;;4992905;28;20054;-82
2022/06/05 03:08:47;;;;;;;1.77;1.67;;;;;;;;;;4992598;28;20022;-84
2022/06/05 03:11:15;;;;;;;2.55;2.10;;;;;;;;;;4959897;28;20023;-83
2022/06/05 03:13:43;;;;;;;3.30;2.70;;;;;;;;;;5008213;28;20372;-84
2022/06/05 03:16:08;;;;;;;2.08;1.70;;;;;;;;;;4992485;28;20030;-83
2022/06/05 03:18:35;;;;;;;0.52;0.52;;;;;;;;;;4976172;28;20364;-83
2022/06/05 03:21:02;;;;;;;3.80;0.75;;;;;;;;;;4959872;28;20027;-84
2022/06/05 03:23:31;;;;;;;0.93;0.82;;;;;;;;;;4960047;28;20023;-83
2022/06/05 03:25:58;;;;;;;1.02;0.77;;;;;;;;;;4960541;28;20065;-80
2022/06/05 03:28:23;;;;;;;2.10;1.65;;;;;;;;;;4976156;28;20054;-80
2022/06/05 03:30:49;;;;;;;1.52;1.45;;;;;;;;;;5008297;28;20034;-80
2022/06/05 03:33:14;;;;;;;2.13;1.77;;;;;;;;;;5007890;28;20435;-79
2022/06/05 03:35:42;;;;;;;1.35;1.25;;;;;;;;;;5007866;28;20030;-80
2022/06/05 03:38:08;;;;;;;1.30;0.52;;;;;;;;;;4991714;28;20035;-80
2022/06/05 03:40:41;;;;;;;1.10;0.95;;;;;;;;;;4975503;28;20055;-80
2022/06/05 03:43:07;;;;;;;1.25;0.80;;;;;;;;;;4992037;28;20015;-80
2022/06/05 03:45:32;;;;;;;1.33;1.23;;;;;;;;;;4976562;28;20368;-81
2022/06/05 03:47:57;;;;;;;1.45;1.15;;;;;;;;;;4975451;28;20407;-80
2022/06/05 03:50:23;;;;;;;1.23;1.13;;;;;;;;;;5007648;28;20027;-81
2022/06/05 03:52:51;;;;;;;1.80;0.52;;;;;;;;;;4975228;28;20122;-79
2022/06/05 03:55:19;;;;;;;1.33;1.20;;;;;;;;;;4975249;28;20074;-80
2022/06/05 03:57:47;;;;;;;0.50;0.50;;;;;;;;;;4976422;28;20498;-80
2022/06/05 04:00:15;;;;;;;1.85;1.00;;;;;;;;;;4976044;28;20037;-81
2022/06/05 04:02:40;;;;;;;5.20;2.15;;;;;;;;;;4975565;28;20014;-81
2022/06/05 04:05:07;;;;;;;1.42;1.20;;;;;;;;;;4975097;28;20444;-80
2022/06/05 04:07:35;;;;;;;1.42;0.98;;;;;;;;;;4959158;28;20027;-81
2022/06/05 04:10:00;;;;;;;0.80;0.80;;;;;;;;;;4975882;28;20453;-81
2022/06/05 04:12:26;;;;;;;1.02;0.98;;;;;;;;;;4991345;28;20041;-80
2022/06/05 04:14:54;;;;;;;2.08;1.73;;;;;;;;;;5007471;28;20345;-81
2022/06/05 04:17:21;;;;;;;1.60;1.20;;;;;;;;;;4974971;28;20026;-80
2022/06/05 04:19:47;;;;;;;2.00;0.98;;;;;;;;;;4976658;28;20026;-81
2022/06/05 04:22:12;;;;;;;1.25;1.05;;;;;;;;;;4975507;28;20046;-81
2022/06/05 04:24:42;;;;;;;1.30;1.00;;;;;;;;;;4975258;28;20046;-81
2022/06/05 04:27:08;;;;;;;0.95;0.95;;;;;;;;;;4976090;28;20383;-81
2022/06/05 04:29:33;;;;;;;4.22;1.73;;;;;;;;;;4975709;28;20054;-81
2022/06/05 04:31:58;;;;;;;2.15;1.38;;;;;;;;;;4976123;28;20451;-81
2022/06/05 04:34:26;;;;;;;1.00;1.00;;;;;;;;;;4975734;28;20416;-79
2022/06/05 04:36:54;;;;;;;3.88;1.27;;;;;;;;;;4975710;28;20026;-81
2022/06/05 04:39:20;;;;;;;1.05;0.93;;;;;;;;;;4990334;28;20364;-80
2022/06/05 04:41:48;;;;;;;1.55;1.10;;;;;;;;;;4974758;28;20041;-80
2022/06/05 04:44:16;;;;;;;4.50;1.30;;;;;;;;;;4974822;28;20071;-80
2022/06/05 04:46:44;;;;;;;1.35;0.95;;;;;;;;;;5006428;28;20130;-80
2022/06/05 04:49:10;;;;;;;3.13;1.23;;;;;;;;;;5009113;28;20054;-81
2022/06/05 04:51:36;;;;;;;1.60;1.50;;;;;;;;;;5010313;28;20058;-80
2022/06/05 04:54:08;;;;;;;0.73;0.73;;;;;;;;;;4977981;28;20058;-81
2022/06/05 04:56:33;;;;;;;1.90;1.67;;;;;;;;;;4977518;28;20421;-80
2022/06/05 04:59:00;;;;;;;1.33;1.23;;;;;;;;;;5009793;28;20030;-80
2022/06/05 05:01:28;;;;;;;1.15;1.05;;;;;;;;;;5010245;28;20022;-81
2022/06/05 05:03:59;;;;;;;1.35;0.90;;;;;;;;;;4977993;28;20030;-81
2022/06/05 05:06:25;;;;;;;1.63;1.17;;;;;;;;;;4978297;28;20056;-81
2022/06/05 05:08:51;;;;;;;0.82;0.82;;;;;;;;;;5009400;28;20058;-81
2022/06/05 05:11:16;;;;;;;0.77;0.77;;;;;;;;;;4977970;28;20117;-82
2022/06/05 05:13:44;;;;;;;1.42;1.15;;;;;;;;;;4977671;28;20045;-81
2022/06/05 05:16:12;;;;;;;1.48;0.98;;;;;;;;;;4977978;28;20069;-81
2022/06/05 05:18:37;;;;;;;1.60;1.35;;;;;;;;;;5009399;28;20034;-80
2022/06/05 05:21:13;;;;;;;2.17;1.35;;;;;;;;;;4977071;28;20026;-81
2022/06/05 05:23:40;;;;;;;1.15;1.08;;;;;;;;;;4977967;28;20359;-82
2022/06/05 05:26:10;;;;;;;1.35;1.05;;;;;;;;;;5009205;28;20549;-81
2022/06/05 05:28:39;;;;;;;1.25;1.02;;;;;;;;;;4977537;28;20023;-81
2022/06/05 05:31:09;;;;;;;1.55;1.45;;;;;;;;;;4976697;28;20027;-81
2022/06/05 05:33:37;;;;;;;1.33;1.23;;;;;;;;;;4993474;28;20046;-80
2022/06/05 05:36:03;;;;;;;0.98;0.93;;;;;;;;;;4976550;28;20451;-81
2022/06/05 05:38:31;;;;;;;1.58;0.93;;;;;;;;;;4938971;28;1135010;-81
2022/06/05 05:43:40;;;;;;;1.23;1.02;;;;;;;;;;4978563;28;20045;-81
2022/06/05 05:46:12;;;;;;;1.92;1.38;;;;;;;;;;4979032;28;20022;-80
2022/06/05 05:48:38;;;;;;;;;;;;;;;;;;5010545;28;20027;-81
2022/06/05 05:51:09;;;;;;;0.50;0.50;;;;;;;;;;4978447;28;20060;-82
2022/06/05 05:53:35;;;;;;;1.05;0.98;;;;;;;;;;4993529;28;20035;-81
2022/06/05 05:56:11;;;;;;;2.05;1.25;;;;;;;;;;4961211;28;20037;-81
2022/06/05 05:58:37;;;;;;;1.00;0.90;;;;;;;;;;5009904;28;20031;-82
2022/06/05 06:01:07;;;;;;;2.70;1.65;;;;;;;;;;4977429;28;20037;-82
2022/06/05 06:03:35;;;;;;;1.35;1.17;;;;;;;;;;4977535;28;20046;-81
2022/06/05 06:06:01;;;;;;;1.65;0.95;;;;;;;;;;4978634;28;20033;-81
2022/06/05 06:08:30;;;;;;;1.05;0.60;;;;;;;;;;4977161;28;20110;-81
2022/06/05 06:10:58;;;;;;;1.55;1.45;;;;;;;;;;4961450;28;20368;-82
2022/06/05 06:13:25;;;;;;;2.95;1.05;;;;;;;;;;4976843;28;20026;-81
2022/06/05 06:15:51;;;;;;;0.88;0.82;;;;;;;;;;4978509;28;20094;-80
2022/06/05 06:18:16;;;;;;;0.75;0.75;;;;;;;;;;4977779;28;20117;-82
2022/06/05 06:20:42;;;;;;;1.60;1.30;;;;;;;;;;4978091;28;20022;-81
2022/06/05 06:23:07;;;;;;;1.58;1.13;;;;;;;;;;4977781;28;20438;-81
2022/06/05 06:25:36;;;;;;;1.30;1.20;;;;;;;;;;4992938;28;20031;-81
2022/06/05 06:28:03;;;;;;;1.23;1.15;;;;;;;;;;4977611;28;20022;-81
2022/06/05 06:30:32;;;;;;;1.55;1.30;;;;;;;;;;4977550;28;20027;-81
2022/06/05 06:32:57;;;;;;;0.88;0.88;;;;;;;;;;4976550;28;20038;-81
2022/06/05 06:35:23;;;;;;;0.90;0.90;;;;;;;;;;4977725;28;20034;-81
2022/06/05 06:37:48;;;;;;;0.73;0.73;;;;;;;;;;4992714;28;20092;-81
2022/06/05 06:40:16;;;;;;;1.98;1.33;;;;;;;;;;4977524;28;20444;-79
2022/06/05 06:42:44;;;;;;;1.45;0.82;;;;;;;;;;5009139;28;20038;-80
2022/06/05 06:45:09;;;;;;;1.23;1.10;;;;;;;;;;5008489;28;20036;-80
2022/06/05 06:47:35;;;;;;;1.27;0.80;;;;;;;;;;4992381;28;20026;-82
2022/06/05 06:50:03;;;;;;;1.63;1.52;;;;;;;;;;5008681;28;20097;-81
2022/06/05 06:52:28;;;;;;;1.13;1.02;;;;;;;;;;4992618;28;20034;-80
2022/06/05 06:54:54;;;;;;;1.38;0.93;;;;;;;;;;4977516;28;20041;-81
2022/06/05 06:57:21;;;;;;;1.08;1.02;;;;;;;;;;4976266;28;20125;-81
2022/06/05 06:59:47;;;;;;;1.00;1.00;;;;;;;;;;4977152;28;20031;-80
2022/06/05 07:02:13;;;;;;;1.10;1.08;;;;;;;;;;4976972;28;20089;-79
2022/06/05 07:04:38;;;;;;;1.85;1.02;;;;;;;;;;4976980;28;20026;-80
2022/06/05 07:07:06;;;;;;;0.57;0.52;;;;;;;;;;4977469;28;20088;-81
2022/06/05 07:09:33;;;;;;;2.90;1.67;;;;;;;;;;4992035;28;20026;-80
2022/06/05 07:11:59;;;;;;;1.55;0.50;;;;;;;;;;5007876;28;20113;-80
2022/06/05 07:14:26;;;;;;;4.47;1.95;;;;;;;;;;4975743;28;20023;-81
2022/06/05 07:16:51;;;;;;;0.43;0.43;;;;;;;;;;4991973;28;20031;-81
2022/06/05 07:19:17;;;;;;;2.85;1.38;;;;;;;;;;5008839;28;20425;-82
2022/06/05 07:21:42;;;;;;;1.42;1.33;;;;;;;;;;4976623;28;20027;-82
2022/06/05 07:24:08;;;;;;;0.73;0.68;;;;;;;;;;5008208;28;20018;-81
2022/06/05 07:26:33;;;;;;;1.10;0.75;;;;;;;;;;4976450;28;20117;-81
2022/06/05 07:28:59;;;;;;;2.22;1.15;;;;;;;;;;4976824;28;20407;-80
2022/06/05 07:31:29;;;;;;;1.35;1.25;;;;;;;;;;5008493;28;20027;-79
2022/06/05 07:33:55;;;;;;;3.72;1.05;;;;;;;;;;4975966;28;20054;-81
2022/06/05 07:36:20;;;;;;;0.60;0.60;;;;;;;;;;4975857;28;20407;-80
2022/06/05 07:38:46;;;;;;;1.20;1.10;;;;;;;;;;4976225;28;20122;-82
2022/06/05 07:41:36;;;;;;;1.55;1.13;;;;;;;;;;4976319;28;20030;-80
2022/06/05 07:44:02;;;;;;;1.33;1.08;;;;;;;;;;5007261;28;20022;-80
2022/06/05 07:46:29;;;;;;;1.15;1.05;;;;;;;;;;4975521;28;20437;-80
2022/06/05 07:48:54;;;;;;;1.55;1.25;;;;;;;;;;4976251;28;20385;-80
2022/06/05 07:57:08;;;;;;;1.27;0.98;;;;;;;;;;4975837;28;20085;-80
2022/06/05 07:59:40;;;;;;;1.33;1.23;;;;;;;;;;4975494;28;20110;-80
2022/06/05 08:02:27;;;;;;;1.03;0.87;;;;;;;;;;5007871;28;20352;-80
2022/06/05 08:04:53;;;;;;;0.93;0.93;;;;;;;;;;4976361;28;20037;-79
2022/06/05 08:07:25;;;;;;;1.08;0.98;;;;;;;;;;4991073;28;20330;-79
2022/06/05 08:09:52;;;;;;;1.55;1.08;;;;;;;;;;4959004;28;20027;-81
2022/06/05 08:12:19;;;;;;;2.50;2.00;;;;;;;;;;5007420;28;20035;-80
2022/06/05 08:14:49;;;;;;;0.80;0.75;;;;;;;;;;5007454;28;20109;-80
2022/06/05 08:17:17;;;;;;;0.75;0.75;;;;;;;;;;4976305;28;20019;-81
2022/06/05 08:19:44;;;;;;;1.90;1.40;;;;;;;;;;4991267;28;20428;-81
2022/06/05 08:22:11;;;;;;;1.38;1.00;;;;;;;;;;4975494;28;20041;-80
2022/06/05 08:24:37;;;;;;;1.73;1.35;;;;;;;;;;4958923;28;20504;-79
2022/06/05 08:27:02;;;;;;;1.33;0.85;;;;;;;;;;4975194;28;20122;-80
2022/06/05 08:29:28;;;;;;;1.48;1.27;;;;;;;;;;5007268;28;20097;-81
2022/06/05 08:31:58;;;;;;;1.13;0.93;;;;;;;;;;5007692;28;20027;-80
2022/06/05 08:34:23;;;;;;;2.83;1.25;;;;;;;;;;4976020;28;20023;-81
2022/06/05 08:41:26;;;;;;;1.35;1.02;;;;;;;;;;5007330;28;20038;-81
2022/06/05 08:42:32;;;;;;;2.28;1.58;;;;;;;;;;4975567;28;20467;-82
2022/06/05 08:45:10;;;;;;;1.40;1.23;;;;;;;;;;4993264;28;20029;-79
2022/06/05 08:47:41;;;;;;;1.95;0.98;;;;;;;;;;5007342;28;20041;-81
2022/06/05 08:57:39;;;;;;;1.25;1.15;;;;;;;;;;4993797;28;20033;-82
2022/06/05 09:00:04;;;;;;;1.02;0.73;;;;;;;;;;4977195;28;20034;-81
2022/06/05 09:02:58;;;;;;;1.27;1.00;;;;;;;;;;4993350;28;20053;-81
2022/06/05 09:11:55;;;;;;;3.35;1.20;;;;;;;;;;4994080;28;20534;-80
2022/06/05 09:15:08;;;;;;;1.50;1.30;;;;;;;;;;4977181;28;20395;-81
2022/06/05 09:17:35;;;;;;;0.90;0.90;;;;;;;;;;4961680;28;20066;-81
2022/06/05 09:20:03;;;;;;;1.65;1.20;;;;;;;;;;4976944;28;20102;-80
2022/06/05 09:22:37;;;;;;;0.70;0.70;;;;;;;;;;4976919;28;20026;-81
2022/06/05 09:25:06;;;;;;;1.40;1.20;;;;;;;;;;4993819;28;20065;-81
2022/06/05 09:28:08;;;;;;;1.23;1.13;;;;;;;;;;4983382;28;20073;-81
2022/06/05 09:30:49;;;;;;;1.58;1.40;;;;;;;;;;4975222;28;20026;-81
2022/06/05 09:33:19;;;;;;;0.75;0.68;;;;;;;;;;4990533;28;20122;-81
2022/06/05 09:35:50;;;;;;;0.85;0.85;;;;;;;;;;4977583;28;20019;-82
2022/06/05 09:38:43;;;;;;;5.72;1.35;;;;;;;;;;4978935;28;20093;-81
2022/06/05 09:41:11;;;;;;;1.73;0.98;;;;;;;;;;4978589;28;20033;-81
2022/06/05 09:44:14;;;;;;;1.60;1.33;;;;;;;;;;4978870;28;20019;-81
2022/06/05 09:46:52;;;;;;;1.27;0.95;;;;;;;;;;4978785;28;20027;-81
2022/06/05 09:49:38;;;;;;;1.73;1.40;;;;;;;;;;4977970;28;20098;-81
2022/06/05 09:55:44;;;;;;;4.90;1.42;;;;;;;;;;4978714;28;20368;-82
2022/06/05 10:01:37;;;;;;;0.88;0.82;;;;;;;;;;4978680;28;20523;-78
2022/06/05 10:04:05;;;;;;;1.45;1.13;;;;;;;;;;4994185;28;20030;-80
2022/06/05 10:06:40;;;;;;;1.40;1.30;;;;;;;;;;5009764;28;20031;-81
2022/06/05 10:09:11;;;;;;;1.90;0.70;;;;;;;;;;4978065;28;20030;-80
2022/06/05 10:11:54;;;;;;;7.53;1.42;;;;;;;;;;4978075;28;20381;-80
2022/06/05 10:14:53;;;;;;;1.00;1.00;;;;;;;;;;4977936;28;20086;-81
2022/06/05 10:17:24;;;;;;;1.08;0.90;;;;;;;;;;5009944;28;20033;-81
2022/06/05 10:20:15;;;;;;;0.90;0.87;;;;;;;;;;4978055;28;20034;-81
2022/06/05 10:26:31;;;;;;;2.17;1.50;;;;;;;;;;4999568;28;20088;-81
2022/06/05 10:29:10;;;;;;;1.67;1.15;;;;;;;;;;4998406;28;20037;-81
2022/06/05 10:31:38;;;;;;;2.55;1.75;;;;;;;;;;4995478;28;20201;-80
2022/06/05 10:34:12;;;;;;;1.42;1.27;;;;;;;;;;5011367;28;20022;-82
2022/06/05 10:36:50;;;;;;;1.15;1.05;;;;;;;;;;5011886;28;20029;-80
2022/06/05 10:39:25;;;;;;;0.63;0.63;;;;;;;;;;5011545;28;20030;-84
2022/06/05 10:41:53;;;;;;;1.23;0.77;;;;;;;;;;4979173;28;20157;-86
2022/06/05 10:44:52;;;;;;;1.27;1.15;;;;;;;;;;5011628;28;20174;-83
2022/06/05 10:47:53;;;;;;;2.75;1.50;;;;;;;;;;5011974;28;20030;-82
2022/06/05 10:50:28;;;;;;;0.98;0.98;;;;;;;;;;5011525;28;20022;-79
2022/06/05 10:53:02;;;;;;;3.40;1.38;;;;;;;;;;4992271;28;20433;-79
2022/06/05 10:55:34;;;;;;;2.83;1.50;;;;;;;;;;4993159;28;20033;-79
2022/06/05 10:58:12;;;;;;;1.67;1.25;;;;;;;;;;5008901;28;20030;-83
2022/06/05 11:04:02;;;;;;;3.05;2.15;;;;;;;;;;4977414;28;20038;-81
2022/06/05 11:06:40;;;;;;;2.53;2.22;;;;;;;;;;4992334;28;20082;-83
2022/06/05 11:09:26;;;;;;;1.27;1.17;;;;;;;;;;4977288;28;20106;-80
2022/06/05 11:15:03;;;;;;;1.05;1.02;;;;;;;;;;4976528;28;20360;-80
2022/06/05 11:17:35;;;;;;;1.65;1.30;;;;;;;;;;5009213;28;20022;-80
2022/06/05 11:20:16;;;;;;;2.47;1.55;;;;;;;;;;4992854;28;20410;-81
2022/06/05 11:22:56;;;;;;;2.17;1.23;;;;;;;;;;4992086;28;20034;-77
2022/06/05 11:25:28;;;;;;;0.80;0.70;;;;;;;;;;5008329;28;20026;-83
2022/06/05 11:28:12;;;;;;;;;;;;;;;;;;4992176;28;20554;-82
2022/06/05 11:31:01;;;;;;;1.88;1.33;;;;;;;;;;4991831;28;19917;-83
2022/06/05 11:33:28;;;;;;;0.80;0.80;;;;;;;;;;4991765;28;20511;-82
2022/06/05 11:43:14;;;;;;;4.18;1.77;;;;;;;;;;4976653;28;20045;-82
2022/06/05 11:45:48;;;;;;;;;;;;;;;;;;4992039;28;20026;-82
2022/06/05 11:48:43;;;;;;;1.73;1.40;;;;;;;;;;4991577;28;19910;-83
2022/06/05 11:51:33;;;;;;;1.60;1.45;;;;;;;;;;4975151;28;20039;-82
2022/06/05 12:00:56;;;;;;;1.77;1.60;;;;;;;;;;4994361;28;20060;-82
2022/06/05 12:09:59;;;;;;;3.55;2.00;;;;;;;;;;4993864;28;20041;-82
2022/06/05 12:12:38;;;;;;;2.28;2.08;;;;;;;;;;4977360;28;20050;-83
2022/06/05 12:15:19;;;;;;;1.70;1.52;;;;;;;;;;4961286;28;20038;-82
2022/06/05 12:17:53;;;;;;;2.90;1.52;;;;;;;;;;4993913;28;20352;-81
2022/06/05 12:20:42;;;;;;;1.48;1.35;;;;;;;;;;4993391;28;20072;-82
2022/06/05 12:23:11;;;;;;;3.70;2.22;;;;;;;;;;4977193;28;20022;-82
2022/06/05 12:32:51;;;;;;;2.13;1.65;;;;;;;;;;4993722;28;20037;-81
2022/06/05 12:35:32;;;;;;;1.17;1.08;;;;;;;;;;4996022;28;20490;-81
2022/06/05 12:38:18;;;;;;;0.95;0.80;;;;;;;;;;5025353;28;20069;-82
2022/06/05 12:40:56;;;;;;;3.22;1.98;;;;;;;;;;5015565;28;20113;-82
2022/06/05 12:43:29;;;;;;;2.33;1.42;;;;;;;;;;5013920;28;20018;-83
2022/06/05 12:46:02;;;;;;;1.60;1.50;;;;;;;;;;5025199;28;20030;-84
2022/06/05 12:57:45;;;;;;;0.93;0.77;;;;;;;;;;4976009;28;20098;-83
2022/06/05 13:00:16;;;;;;;2.15;1.45;;;;;;;;;;4957371;28;20030;-83
2022/06/05 13:15:44;;;;;;;1.33;1.23;;;;;;;;;;4882537;29;20039;-83
2022/06/05 13:18:29;;;;;;;1.77;1.67;;;;;;;;;;4882230;29;20033;-83
2022/06/05 13:21:29;;;;;;;2.70;1.73;;;;;;;;;;4866698;29;20037;-84
2022/06/05 13:24:29;;;;;;;1.10;1.00;;;;;;;;;;4874753;29;20464;-83
2022/06/05 13:27:28;;;;;;;3.22;1.58;;;;;;;;;;4922883;29;20528;-83
2022/06/05 13:30:19;;;;;;;5.90;1.25;;;;;;;;;;4939595;29;20043;-84
2022/06/05 13:32:48;;;;;;;1.30;1.02;;;;;;;;;;4942276;29;20024;-83
2022/06/05 13:41:55;;;;;;;1.27;1.17;;;;;;;;;;4953484;28;20107;-81
2022/06/05 13:44:23;;;;;;;1.90;1.77;;;;;;;;;;5031406;28;20045;-82
2022/06/05 13:47:17;;;;;;;1.98;1.50;;;;;;;;;;5033134;28;20439;-83
2022/06/05 13:50:15;;;;;;;2.30;1.95;;;;;;;;;;5049590;28;20109;-82
2022/06/05 13:53:00;;;;;;;1.00;0.98;;;;;;;;;;5017326;28;20435;-86
2022/06/05 13:55:52;;;;;;;1.73;0.70;;;;;;;;;;5016554;28;20033;-82
2022/06/05 13:58:35;;;;;;;2.03;1.33;;;;;;;;;;5017403;28;20029;-82
2022/06/05 14:01:23;;;;;;;1.52;1.42;;;;;;;;;;5032936;28;20022;-79
2022/06/05 14:03:54;;;;;;;2.50;1.55;;;;;;;;;;5016418;28;20355;-82
2022/06/05 14:06:31;;;;;;;1.38;1.02;;;;;;;;;;5000002;28;20022;-82
2022/06/05 14:09:01;;;;;;;1.52;1.27;;;;;;;;;;5017493;28;20055;-82
2022/06/05 14:11:42;;;;;;;3.03;1.80;;;;;;;;;;5016188;28;20021;-80
2022/06/05 14:14:10;;;;;;;1.75;1.52;;;;;;;;;;5049268;28;20030;-83
2022/06/05 14:16:43;;;;;;;2.55;2.22;;;;;;;;;;5032326;28;20026;-82
2022/06/05 14:19:27;;;;;;;2.85;2.65;;;;;;;;;;5032099;28;20443;-81
2022/06/05 14:22:27;;;;;;;1.48;1.38;;;;;;;;;;5031705;28;20038;-83
2022/06/05 14:24:55;;;;;;;2.05;1.50;;;;;;;;;;5031875;28;20029;-83
2022/06/05 14:27:34;;;;;;;1.48;1.35;;;;;;;;;;5016604;28;20065;-84
2022/06/05 14:30:02;;;;;;;3.60;1.92;;;;;;;;;;5033971;28;20418;-83
2022/06/05 14:32:34;;;;;;;1.25;1.15;;;;;;;;;;5016543;28;20026;-81
2022/06/05 14:35:30;;;;;;;2.90;2.20;;;;;;;;;;5032348;28;20092;-81
2022/06/05 14:38:16;;;;;;;1.98;1.83;;;;;;;;;;5015360;28;20300;-80
2022/06/05 14:40:41;;;;;;;1.75;1.63;;;;;;;;;;5032044;28;20033;-81
2022/06/05 14:43:19;;;;;;;1.25;1.15;;;;;;;;;;5031888;28;20029;-81
2022/06/05 14:45:54;;;;;;;2.17;1.35;;;;;;;;;;5016736;28;20029;-79
2022/06/05 14:48:55;;;;;;;4.97;2.40;;;;;;;;;;5031871;28;20029;-79
2022/06/05 14:51:33;;;;;;;2.15;1.52;;;;;;;;;;4997583;28;20442;-79
2022/06/05 14:57:51;;;;;;;1.98;1.55;;;;;;;;;;5016235;28;20080;-80
2022/06/05 15:00:33;;;;;;;3.10;1.63;;;;;;;;;;4975571;28;20042;-79
2022/06/05 15:03:04;;;;;;;1.95;1.35;;;;;;;;;;4959561;28;20034;-80
2022/06/05 15:05:36;;;;;;;1.60;1.50;;;;;;;;;;4959186;28;20042;-81
2022/06/05 15:08:54;;;;;;;1.77;1.63;;;;;;;;;;4959130;28;20027;-81
2022/06/05 15:11:39;;;;;;;3.17;1.95;;;;;;;;;;4975216;28;20038;-81
2022/06/05 15:14:29;;;;;;;1.95;1.65;;;;;;;;;;4975211;28;20035;-81
2022/06/05 15:17:09;;;;;;;2.70;2.10;;;;;;;;;;4958833;28;20061;-81
2022/06/05 15:19:35;;;;;;;1.90;1.63;;;;;;;;;;4958929;28;20042;-78
2022/06/05 15:22:36;;;;;;;1.70;1.40;;;;;;;;;;4959655;28;20035;-80
2022/06/05 15:25:12;;;;;;;2.20;1.83;;;;;;;;;;4975241;28;20073;-80
2022/06/05 15:27:51;;;;;;;2.97;1.80;;;;;;;;;;4942681;28;20026;-80
2022/06/05 15:30:34;;;;;;;2.05;1.58;;;;;;;;;;4981647;28;20133;-80
2022/06/05 15:33:23;;;;;;;2.20;1.50;;;;;;;;;;5029753;28;20073;-80
2022/06/05 15:36:09;;;;;;;2.65;2.13;;;;;;;;;;5047835;28;20044;-78
2022/06/05 15:38:44;;;;;;;10.05;1.55;;;;;;;;;;5015671;28;20025;-81
2022/06/05 15:41:24;;;;;;;5.00;1.98;;;;;;;;;;5048000;28;20029;-81
2022/06/05 15:44:22;;;;;;;2.47;2.22;;;;;;;;;;5047654;28;20057;-81
2022/06/05 15:47:35;;;;;;;4.95;2.45;;;;;;;;;;5030657;28;20026;-80
2022/06/05 15:50:12;;;;;;;1.35;1.23;;;;;;;;;;4993796;28;20034;-80
2022/06/05 15:53:19;;;;;;;3.13;1.95;;;;;;;;;;4993885;28;20034;-81
2022/06/05 15:56:21;;;;;;;3.33;2.10;;;;;;;;;;4977472;28;20391;-80
2022/06/05 15:59:11;;;;;;;3.42;1.88;;;;;;;;;;4993709;28;20471;-80
2022/06/05 16:05:02;;;;;;;2.53;1.70;;;;;;;;;;4994040;28;20033;-80
2022/06/05 16:07:32;;;;;;;3.92;1.40;;;;;;;;;;4977769;28;20041;-81
2022/06/05 16:10:03;;;;;;;2.03;1.40;;;;;;;;;;4961538;28;20059;-81
2022/06/05 16:12:34;;;;;;;2.90;1.52;;;;;;;;;;4977629;28;20078;-80
2022/06/05 16:15:18;;;;;;;2.15;2.05;;;;;;;;;;4977262;28;20475;-81
2022/06/05 16:24:41;;;;;;;1.23;1.13;;;;;;;;;;4935641;28;20082;-80
2022/06/05 16:27:37;;;;;;;1.42;1.33;;;;;;;;;;4935516;29;20038;-82
2022/06/05 16:30:41;;;;;;;1.85;1.58;;;;;;;;;;4919693;29;20054;-80
2022/06/05 16:40:21;;;;;;;1.60;1.33;;;;;;;;;;4935451;29;20034;-77
2022/06/05 16:42:51;;;;;;;0.93;0.85;;;;;;;;;;4936052;29;20088;-78
2022/06/05 16:45:25;;;;;;;0.75;0.40;;;;;;;;;;4939083;29;20540;-79
2022/06/05 16:47:54;;;;;;;0.88;0.75;;;;;;;;;;4924130;29;20107;-81
2022/06/05 16:50:32;;;;;;;0.30;0.30;;;;;;;;;;4923445;29;20122;-78
2022/06/05 16:53:15;;;;;;;0.70;0.45;;;;;;;;;;4955194;29;20044;-79
2022/06/05 16:56:08;;;;;;;0.30;0.30;;;;;;;;;;4908583;29;20118;-81
2022/06/05 16:58:54;;;;;;;0.35;0.35;;;;;;;;;;5001155;28;20100;-79
2022/06/05 17:01:19;;;;;;;1.95;0.82;;;;;;;;;;5019242;28;20041;-80
2022/06/05 17:04:03;;;;;;;0.40;0.40;;;;;;;;;;5018381;28;20040;-80
2022/06/05 17:06:31;;;;;;;1.70;1.10;;;;;;;;;;5018240;28;20465;-81
2022/06/05 17:08:58;;;;;;;1.00;1.00;;;;;;;;;;5018613;28;20116;-81
2022/06/05 17:11:38;;;;;;;0.77;0.75;;;;;;;;;;5018185;28;20053;-82
2022/06/05 17:14:09;;;;;;;0.73;0.73;;;;;;;;;;5017624;28;20080;-81
2022/06/05 17:16:46;;;;;;;0.90;0.73;;;;;;;;;;5033693;28;20053;-82
2022/06/05 17:19:23;;;;;;;0.68;0.60;;;;;;;;;;5017141;28;20356;-80
2022/06/05 17:21:57;;;;;;;0.45;0.40;;;;;;;;;;5018343;28;20399;-80
2022/06/05 17:25:10;;;;;;;0.55;0.55;;;;;;;;;;5034538;28;20041;-80
2022/06/05 17:28:11;;;;;;;1.08;0.38;;;;;;;;;;5028223;28;20026;-80
2022/06/05 17:30:51;;;;;;;0.45;0.45;;;;;;;;;;4980364;28;20119;-79
2022/06/05 17:33:37;;;;;;;0.65;0.43;;;;;;;;;;5012527;28;20034;-78
2022/06/05 17:36:33;;;;;;;1.75;0.20;;;;;;;;;;5033286;28;20030;-80
2022/06/05 17:39:09;;;;;;;0.68;0.28;;;;;;;;;;5050521;28;20021;-80